Time;durP1;ratioP1;P1;durP2;ratioP2;P2;SDS_P1;SDS_P2;PMS_P1;PMS_P2;Temp;Humidity;BMP_temperature;BMP_pressure;BME280_temperature;BME280_humidity;BME280_pressure;Samples;Min_cycle;Max_cycle;Signal;HPM_P1;HPM_P2
2024/01/05 00:00:46;;;;;;;1.50;1.40;;;3.20;99.90;;;;;;5034770;28;20038;-68
2024/01/05 00:03:12;;;;;;;1.85;1.67;;;3.60;99.90;;;;;;5034696;28;20443;-66
2024/01/05 00:05:39;;;;;;;2.22;1.40;;;3.20;99.90;;;;;;5034681;28;20041;-67
2024/01/05 00:08:05;;;;;;;1.52;1.42;;;3.20;99.90;;;;;;5034327;28;20502;-67
2024/01/05 00:10:31;;;;;;;2.08;1.70;;;3.20;99.90;;;;;;5034602;28;20034;-66
2024/01/05 00:12:56;;;;;;;1.42;1.33;;;3.20;99.90;;;;;;5034285;28;20116;-66
2024/01/05 00:15:22;;;;;;;1.83;1.50;;;3.20;99.90;;;;;;5034599;28;20045;-66
2024/01/05 00:17:48;;;;;;;1.70;1.60;;;3.30;99.90;;;;;;5034529;28;20175;-66
2024/01/05 00:20:14;;;;;;;1.88;1.60;;;3.20;99.90;;;;;;5034422;28;20036;-66
2024/01/05 00:22:40;;;;;;;1.55;1.45;;;3.20;99.90;;;;;;5034360;28;20069;-66
2024/01/05 00:25:06;;;;;;;1.92;1.80;;;3.40;99.90;;;;;;5034016;28;20077;-67
2024/01/05 00:27:31;;;;;;;1.60;1.50;;;3.20;99.90;;;;;;5034069;28;20396;-70
2024/01/05 00:29:57;;;;;;;1.70;1.60;;;3.20;99.90;;;;;;5033964;28;20040;-70
2024/01/05 00:32:23;;;;;;;2.53;1.83;;;3.10;99.90;;;;;;5034183;28;20099;-68
2024/01/05 00:34:48;;;;;;;1.80;1.70;;;3.90;99.90;;;;;;5034207;28;20041;-69
2024/01/05 00:37:14;;;;;;;1.75;1.60;;;3.20;99.90;;;;;;5034341;28;20037;-61
2024/01/05 00:39:40;;;;;;;2.92;1.48;;;3.20;99.90;;;;;;5034054;28;20037;-62
2024/01/05 00:42:06;;;;;;;1.67;1.50;;;3.20;99.90;;;;;;5033682;28;20084;-61
2024/01/05 00:44:31;;;;;;;1.80;1.70;;;3.10;99.90;;;;;;5033919;28;20047;-64
2024/01/05 00:46:57;;;;;;;1.83;1.73;;;3.10;99.90;;;;;;5033749;28;20029;-61
2024/01/05 00:49:23;;;;;;;3.08;1.80;;;3.10;99.90;;;;;;5033618;28;20492;-62
2024/01/05 00:51:48;;;;;;;1.80;1.70;;;3.10;99.90;;;;;;5033810;28;20030;-61
2024/01/05 00:54:14;;;;;;;1.70;1.60;;;3.10;99.90;;;;;;5033800;28;20034;-62
2024/01/05 00:56:40;;;;;;;2.25;1.90;;;3.10;99.90;;;;;;5033452;28;20045;-62
2024/01/05 00:59:06;;;;;;;2.47;2.00;;;3.10;99.90;;;;;;5033740;28;20037;-61
2024/01/05 01:01:32;;;;;;;2.22;2.00;;;3.10;99.90;;;;;;5016045;28;20103;-61
2024/01/05 01:03:58;;;;;;;2.20;1.95;;;3.10;99.90;;;;;;5033258;28;20042;-62
2024/01/05 01:06:24;;;;;;;2.60;2.40;;;3.10;99.90;;;;;;5033708;28;20039;-61
2024/01/05 01:08:50;;;;;;;2.28;2.08;;;3.80;99.90;;;;;;5033137;28;20049;-61
2024/01/05 01:11:16;;;;;;;2.45;2.25;;;3.10;99.90;;;;;;5033205;28;20507;-61
2024/01/05 01:13:42;;;;;;;2.22;1.95;;;3.10;99.90;;;;;;5033188;28;20049;-61
2024/01/05 01:16:08;;;;;;;2.10;1.90;;;3.10;99.90;;;;;;5033434;28;20095;-61
2024/01/05 01:18:34;;;;;;;1.80;1.70;;;3.10;99.90;;;;;;5033400;28;20060;-61
2024/01/05 01:20:59;;;;;;;3.30;2.17;;;3.10;99.90;;;;;;5033430;28;20485;-62
2024/01/05 01:23:25;;;;;;;2.28;2.08;;;3.10;99.90;;;;;;5033293;28;20124;-61
2024/01/05 01:25:51;;;;;;;1.60;1.50;;;3.10;99.90;;;;;;5033313;28;20045;-61
2024/01/05 01:28:16;;;;;;;2.10;1.90;;;3.10;99.90;;;;;;5033283;28;20465;-61
2024/01/05 01:30:42;;;;;;;2.35;1.80;;;3.70;99.90;;;;;;5033273;28;20040;-61
2024/01/05 01:33:07;;;;;;;1.70;1.60;;;3.10;99.90;;;;;;5032963;28;20064;-61
2024/01/05 01:35:33;;;;;;;2.15;1.95;;;3.10;99.90;;;;;;5032879;28;20124;-61
2024/01/05 01:37:59;;;;;;;2.10;1.77;;;3.10;99.90;;;;;;5033126;28;20041;-61
2024/01/05 01:40:26;;;;;;;2.00;1.83;;;3.10;99.90;;;;;;5033148;28;20444;-61
2024/01/05 01:42:52;;;;;;;2.13;1.75;;;3.10;99.90;;;;;;5033116;28;20405;-62
2024/01/05 01:45:17;;;;;;;1.98;1.75;;;3.00;99.90;;;;;;5033070;28;20048;-61
2024/01/05 01:47:45;;;;;;;2.13;1.75;;;3.50;99.90;;;;;;5033155;28;20037;-58
2024/01/05 01:50:11;;;;;;;2.33;2.03;;;3.00;99.90;;;;;;5033144;28;20108;-58
2024/01/05 01:52:39;;;;;;;1.80;1.70;;;3.10;99.90;;;;;;5014996;28;20396;-58
2024/01/05 01:55:06;;;;;;;2.10;1.90;;;3.50;99.90;;;;;;5015321;28;20052;-59
2024/01/05 01:57:33;;;;;;;2.85;1.90;;;3.10;99.90;;;;;;5033007;28;20045;-58
2024/01/05 01:59:58;;;;;;;1.92;1.73;;;3.10;99.90;;;;;;5034303;28;20456;-59
2024/01/05 02:02:25;;;;;;;2.08;1.88;;;3.10;99.90;;;;;;5037005;28;20041;-58
2024/01/05 02:04:51;;;;;;;1.95;1.85;;;3.10;99.90;;;;;;5036953;28;20045;-58
2024/01/05 02:07:17;;;;;;;2.38;2.05;;;3.00;99.90;;;;;;5036669;28;20452;-58
2024/01/05 02:09:43;;;;;;;2.35;2.15;;;3.10;99.90;;;;;;5036873;28;20029;-58
2024/01/05 02:12:08;;;;;;;2.38;1.90;;;3.00;99.90;;;;;;5036814;28;20069;-58
2024/01/05 02:14:34;;;;;;;2.20;1.80;;;3.10;99.90;;;;;;5036442;28;20037;-58
2024/01/05 02:17:00;;;;;;;2.78;2.22;;;3.10;99.90;;;;;;5036793;28;20038;-61
2024/01/05 02:19:25;;;;;;;2.38;2.17;;;3.10;99.90;;;;;;5036680;28;20499;-61
2024/01/05 02:21:54;;;;;;;1.85;1.67;;;3.10;99.90;;;;;;5036684;28;20052;-61
2024/01/05 02:24:20;;;;;;;2.20;2.00;;;3.30;99.90;;;;;;5036644;28;20120;-61
2024/01/05 02:26:46;;;;;;;2.03;1.83;;;3.00;99.90;;;;;;5036552;28;20576;-61
2024/01/05 02:29:13;;;;;;;2.50;2.30;;;3.00;99.90;;;;;;5036556;28;20044;-61
2024/01/05 02:31:39;;;;;;;1.95;1.75;;;3.00;99.90;;;;;;5036496;28;20048;-62
2024/01/05 02:34:05;;;;;;;2.33;2.08;;;2.90;99.90;;;;;;5036395;28;20037;-61
2024/01/05 02:36:31;;;;;;;2.15;2.03;;;3.00;99.90;;;;;;5036343;28;20056;-61
2024/01/05 02:38:56;;;;;;;2.70;2.03;;;3.00;99.90;;;;;;5036046;28;20449;-62
2024/01/05 02:41:22;;;;;;;1.90;1.80;;;3.00;99.90;;;;;;5036332;28;20033;-61
2024/01/05 02:43:48;;;;;;;2.22;2.03;;;3.00;99.90;;;;;;5036187;28;20493;-61
2024/01/05 02:46:13;;;;;;;2.92;2.25;;;2.90;99.90;;;;;;5036179;28;20036;-62
2024/01/05 02:48:39;;;;;;;2.53;2.33;;;3.00;99.90;;;;;;5036101;28;20091;-61
2024/01/05 02:51:05;;;;;;;2.45;2.25;;;2.90;99.90;;;;;;5036117;28;20033;-61
2024/01/05 02:53:30;;;;;;;2.30;2.10;;;3.00;99.90;;;;;;5036085;28;20030;-61
2024/01/05 02:55:56;;;;;;;2.30;2.10;;;3.00;99.90;;;;;;5036145;28;20033;-61
2024/01/05 02:58:21;;;;;;;2.20;2.00;;;3.30;99.90;;;;;;5036005;28;20091;-61
2024/01/05 03:00:47;;;;;;;3.22;2.20;;;3.10;99.90;;;;;;5035611;28;20072;-61
2024/01/05 03:03:13;;;;;;;2.28;2.08;;;3.10;99.90;;;;;;5035592;28;20052;-62
2024/01/05 03:05:39;;;;;;;2.65;2.28;;;3.30;99.90;;;;;;5035799;28;20533;-61
2024/01/05 03:08:04;;;;;;;2.47;2.28;;;3.70;99.90;;;;;;5035497;28;20157;-62
2024/01/05 03:10:30;;;;;;;2.28;2.08;;;3.10;99.90;;;;;;5035370;28;20485;-61
2024/01/05 03:12:56;;;;;;;2.58;2.38;;;3.10;99.90;;;;;;5017662;28;20555;-61
2024/01/05 03:15:21;;;;;;;2.67;2.20;;;3.30;99.90;;;;;;5035660;28;20124;-61
2024/01/05 03:17:48;;;;;;;2.28;2.03;;;3.10;99.90;;;;;;5035611;28;20135;-61
2024/01/05 03:20:16;;;;;;;2.40;2.13;;;3.10;99.90;;;;;;5035276;28;20045;-61
2024/01/05 03:22:41;;;;;;;2.53;2.22;;;3.00;99.90;;;;;;5035196;28;20041;-62
2024/01/05 03:25:07;;;;;;;2.50;2.28;;;3.10;99.90;;;;;;5035371;28;20040;-62
2024/01/05 03:27:33;;;;;;;2.65;2.15;;;3.10;99.90;;;;;;5017855;28;20045;-59
2024/01/05 03:29:59;;;;;;;2.63;2.42;;;3.00;99.90;;;;;;5017455;28;20045;-60
2024/01/05 03:32:24;;;;;;;2.97;2.38;;;3.10;99.90;;;;;;5035101;28;20051;-59
2024/01/05 03:34:50;;;;;;;2.70;2.50;;;3.70;99.90;;;;;;5035367;28;20440;-59
2024/01/05 03:37:16;;;;;;;3.08;2.50;;;3.10;99.90;;;;;;5035282;28;20076;-59
2024/01/05 03:39:41;;;;;;;2.25;2.05;;;3.10;99.90;;;;;;5035229;28;20053;-59
2024/01/05 03:42:07;;;;;;;2.15;1.95;;;3.00;99.90;;;;;;5017207;28;20088;-59
2024/01/05 03:44:33;;;;;;;2.30;2.10;;;3.00;99.90;;;;;;5034793;28;20501;-61
2024/01/05 03:46:58;;;;;;;2.60;2.40;;;3.10;99.90;;;;;;5035031;28;20033;-60
2024/01/05 03:49:24;;;;;;;2.25;2.05;;;2.90;99.90;;;;;;5035009;28;20040;-59
2024/01/05 03:51:49;;;;;;;2.15;1.95;;;3.10;99.90;;;;;;5035071;28;20374;-59
2024/01/05 03:54:15;;;;;;;2.33;2.13;;;3.10;99.90;;;;;;5034942;28;20486;-59
2024/01/05 03:56:48;;;;;;;2.30;2.08;;;3.00;99.90;;;;;;5034929;28;20065;-59
2024/01/05 03:59:14;;;;;;;2.17;1.98;;;3.00;99.90;;;;;;5034781;28;20045;-59
2024/01/05 04:01:44;;;;;;;2.40;1.90;;;3.10;99.90;;;;;;5034840;28;20048;-59
2024/01/05 04:04:10;;;;;;;1.73;1.63;;;3.10;99.90;;;;;;5034324;28;20183;-59
2024/01/05 04:06:35;;;;;;;1.88;1.75;;;3.00;99.90;;;;;;5034728;28;20116;-59
2024/01/05 04:09:01;;;;;;;2.03;1.83;;;3.00;99.90;;;;;;5034176;28;20115;-59
2024/01/05 04:11:30;;;;;;;2.13;1.92;;;3.10;99.90;;;;;;5016904;28;20050;-60
2024/01/05 04:13:56;;;;;;;2.45;2.17;;;3.00;99.90;;;;;;5034350;28;20038;-59
2024/01/05 04:16:21;;;;;;;1.55;1.45;;;3.10;99.90;;;;;;5034554;28;20052;-60
2024/01/05 04:18:47;;;;;;;1.98;1.80;;;3.10;99.90;;;;;;5034473;28;20095;-59
2024/01/05 04:21:13;;;;;;;2.22;1.90;;;3.10;99.90;;;;;;5034451;28;20099;-59
2024/01/05 04:23:41;;;;;;;1.52;1.42;;;3.10;99.90;;;;;;5033373;28;20045;-59
2024/01/05 04:26:06;;;;;;;2.40;1.80;;;3.10;99.90;;;;;;5034348;28;20440;-63
2024/01/05 04:28:33;;;;;;;1.92;1.80;;;3.10;99.90;;;;;;5034302;28;20033;-59
2024/01/05 04:30:58;;;;;;;1.83;1.73;;;3.10;99.90;;;;;;5033970;28;20037;-59
2024/01/05 04:33:24;;;;;;;1.67;1.58;;;3.10;99.90;;;;;;5033895;28;20038;-60
2024/01/05 04:35:50;;;;;;;2.28;2.00;;;3.10;99.90;;;;;;5034254;28;20040;-67
2024/01/05 04:38:15;;;;;;;2.10;1.90;;;3.10;99.90;;;;;;5034114;28;20090;-67
2024/01/05 04:40:41;;;;;;;1.70;1.60;;;3.10;99.90;;;;;;5033811;28;20037;-68
2024/01/05 04:43:07;;;;;;;1.58;1.48;;;3.20;99.90;;;;;;5016074;28;20041;-67
2024/01/05 04:45:35;;;;;;;1.98;1.88;;;3.20;99.90;;;;;;5033880;28;20045;-67
2024/01/05 04:48:01;;;;;;;1.92;1.70;;;3.10;99.90;;;;;;5033676;28;20056;-66
2024/01/05 04:50:27;;;;;;;2.08;1.63;;;3.10;99.90;;;;;;5034130;28;20034;-66
2024/01/05 04:52:52;;;;;;;1.60;1.50;;;3.20;99.90;;;;;;5016159;28;20037;-66
2024/01/05 04:55:20;;;;;;;1.60;1.50;;;3.20;99.90;;;;;;5033786;28;20045;-68
2024/01/05 04:57:46;;;;;;;1.80;1.67;;;3.20;99.90;;;;;;5033785;28;20045;-65
2024/01/05 05:00:12;;;;;;;1.67;1.58;;;3.10;99.90;;;;;;5033788;28;20045;-67
2024/01/05 05:02:37;;;;;;;2.83;1.90;;;3.20;99.90;;;;;;5033649;28;20077;-66
2024/01/05 05:05:03;;;;;;;1.80;1.70;;;3.10;99.90;;;;;;5033501;28;20069;-66
2024/01/05 05:07:29;;;;;;;1.80;1.70;;;3.20;99.90;;;;;;5033356;28;20066;-66
2024/01/05 05:09:54;;;;;;;1.70;1.60;;;3.40;99.90;;;;;;5033607;28;20045;-66
2024/01/05 05:12:20;;;;;;;1.90;1.80;;;3.20;99.90;;;;;;5033548;28;20037;-67
2024/01/05 05:14:46;;;;;;;2.00;1.90;;;3.70;99.90;;;;;;5033424;28;20490;-68
2024/01/05 05:17:11;;;;;;;2.00;1.88;;;3.20;99.90;;;;;;5033533;28;20083;-61
2024/01/05 05:19:37;;;;;;;2.10;1.90;;;3.30;99.90;;;;;;5033106;28;20120;-61
2024/01/05 05:22:03;;;;;;;2.22;2.03;;;3.20;99.90;;;;;;5033383;28;20048;-62
2024/01/05 05:24:28;;;;;;;1.80;1.70;;;3.20;99.90;;;;;;5033259;28;20394;-61
2024/01/05 05:26:54;;;;;;;2.20;2.00;;;3.20;99.90;;;;;;5033020;28;20049;-62
2024/01/05 05:29:19;;;;;;;1.90;1.80;;;3.20;99.90;;;;;;5033054;28;20462;-61
2024/01/05 05:31:45;;;;;;;2.28;2.08;;;3.20;99.90;;;;;;5033254;28;20064;-61
2024/01/05 05:34:11;;;;;;;1.83;1.73;;;3.20;99.90;;;;;;5033120;28;20049;-61
2024/01/05 05:36:36;;;;;;;1.75;1.65;;;3.30;99.90;;;;;;5033130;28;20045;-62
2024/01/05 05:39:02;;;;;;;1.90;1.80;;;3.70;99.90;;;;;;5033186;28;20448;-61
2024/01/05 05:41:28;;;;;;;2.13;1.92;;;3.30;99.90;;;;;;5033125;28;20079;-61
2024/01/05 05:43:54;;;;;;;1.60;1.50;;;3.30;99.90;;;;;;5033070;28;20067;-62
2024/01/05 05:46:20;;;;;;;2.05;1.85;;;3.30;99.90;;;;;;5015302;28;20056;-61
2024/01/05 05:48:46;;;;;;;2.10;1.90;;;3.40;99.90;;;;;;5033062;28;20453;-61
2024/01/05 05:51:12;;;;;;;2.00;1.80;;;3.30;99.90;;;;;;5033066;28;20104;-62
2024/01/05 05:53:37;;;;;;;2.25;2.05;;;3.40;99.90;;;;;;5033072;28;20065;-61
2024/01/05 05:56:04;;;;;;;2.08;1.88;;;3.40;99.90;;;;;;5032968;28;20477;-61
2024/01/05 05:58:29;;;;;;;2.10;1.90;;;3.40;99.90;;;;;;5032904;28;20056;-61
2024/01/05 06:00:55;;;;;;;2.15;1.85;;;3.40;99.90;;;;;;5032907;28;20038;-62
2024/01/05 06:03:22;;;;;;;2.28;2.13;;;3.50;99.90;;;;;;5032985;28;20417;-61
2024/01/05 06:05:48;;;;;;;2.13;1.92;;;3.50;99.90;;;;;;5033110;28;20485;-62
2024/01/05 06:08:14;;;;;;;1.65;1.55;;;3.50;99.90;;;;;;5032427;28;20099;-61
2024/01/05 06:10:40;;;;;;;1.90;1.63;;;3.40;99.90;;;;;;5032808;28;20041;-61
2024/01/05 06:13:06;;;;;;;2.05;1.85;;;3.40;99.90;;;;;;5032858;28;20034;-62
2024/01/05 06:15:31;;;;;;;1.73;1.63;;;3.50;99.90;;;;;;5032768;28;20045;-62
2024/01/05 06:17:58;;;;;;;1.80;1.70;;;3.50;99.90;;;;;;5032804;28;20029;-62
2024/01/05 06:20:24;;;;;;;2.17;1.98;;;3.90;99.90;;;;;;5032797;28;20041;-61
2024/01/05 06:22:50;;;;;;;2.28;2.08;;;3.50;99.90;;;;;;5032803;28;20424;-62
2024/01/05 06:25:16;;;;;;;1.70;1.60;;;3.50;99.90;;;;;;5032583;28;20041;-61
2024/01/05 06:27:42;;;;;;;2.10;1.90;;;3.60;99.90;;;;;;5014821;28;20092;-59
2024/01/05 06:30:11;;;;;;;1.70;1.60;;;3.60;99.90;;;;;;5032756;28;20478;-59
2024/01/05 06:32:38;;;;;;;2.00;1.80;;;3.60;99.90;;;;;;5032667;28;20029;-59
2024/01/05 06:35:05;;;;;;;2.30;2.10;;;3.60;99.90;;;;;;5032616;28;20037;-59
2024/01/05 06:37:31;;;;;;;1.90;1.80;;;3.60;99.90;;;;;;5032355;28;20049;-59
2024/01/05 06:39:56;;;;;;;2.10;1.90;;;3.50;99.90;;;;;;5032302;28;20037;-59
2024/01/05 06:42:22;;;;;;;2.10;1.90;;;3.60;99.90;;;;;;5014650;28;20497;-61
2024/01/05 06:44:50;;;;;;;2.25;2.08;;;3.60;99.90;;;;;;5032446;28;20442;-60
2024/01/05 06:47:16;;;;;;;2.45;2.10;;;3.60;99.90;;;;;;5017693;28;20052;-60
2024/01/05 06:49:42;;;;;;;2.20;1.95;;;3.60;99.90;;;;;;5036169;28;20120;-60
2024/01/05 06:52:08;;;;;;;2.30;2.10;;;3.60;99.90;;;;;;5036105;28;20034;-60
2024/01/05 06:54:34;;;;;;;2.15;1.95;;;4.00;99.90;;;;;;5036072;28;20041;-61
2024/01/05 06:57:00;;;;;;;2.30;2.10;;;3.60;99.90;;;;;;5035954;28;20107;-66
2024/01/05 06:59:30;;;;;;;2.53;2.33;;;3.60;99.90;;;;;;5035934;28;20042;-66
2024/01/05 07:01:58;;;;;;;2.45;2.20;;;3.50;99.90;;;;;;5036067;28;20068;-69
2024/01/05 07:04:24;;;;;;;2.53;2.33;;;3.60;99.90;;;;;;5035537;28;20045;-69
2024/01/05 07:06:49;;;;;;;2.72;2.40;;;3.60;99.90;;;;;;5035478;28;20186;-70
2024/01/05 07:09:15;;;;;;;2.22;2.08;;;3.90;99.90;;;;;;5017778;28;20073;-71
2024/01/05 07:11:41;;;;;;;2.30;2.10;;;3.70;99.90;;;;;;5035791;28;20412;-70
2024/01/05 07:14:06;;;;;;;2.35;2.15;;;3.90;99.90;;;;;;5035736;28;20393;-70
2024/01/05 07:16:32;;;;;;;2.75;2.55;;;4.10;99.90;;;;;;5035428;28;20037;-69
2024/01/05 07:18:59;;;;;;;2.50;2.30;;;4.00;99.90;;;;;;5035561;28;20041;-69
2024/01/05 07:21:25;;;;;;;2.50;2.30;;;4.50;99.90;;;;;;5017544;28;20405;-69
2024/01/05 07:23:51;;;;;;;2.70;2.50;;;4.50;99.90;;;;;;5035479;28;20506;-71
2024/01/05 07:26:23;;;;;;;3.15;2.90;;;3.90;99.90;;;;;;5017474;28;20124;-68
2024/01/05 07:28:49;;;;;;;2.70;2.47;;;;;;;;;;5017702;28;20116;-69
2024/01/05 07:31:15;;;;;;;2.70;2.50;;;;;;;;;;5035109;28;20079;-69
2024/01/05 07:33:41;;;;;;;3.13;2.83;;;3.70;99.90;;;;;;5035035;28;20092;-70
2024/01/05 07:36:07;;;;;;;3.67;2.70;;;3.60;99.90;;;;;;5035340;28;20075;-71
2024/01/05 07:38:36;;;;;;;2.95;2.75;;;4.00;99.90;;;;;;5017420;28;20102;-69
2024/01/05 07:41:02;;;;;;;3.25;2.85;;;4.00;99.90;;;;;;5017274;28;20060;-70
2024/01/05 07:43:29;;;;;;;3.03;2.78;;;3.90;99.90;;;;;;5017240;28;20520;-70
2024/01/05 07:45:55;;;;;;;2.97;2.67;;;;;;;;;;5035068;28;20044;-68
2024/01/05 07:48:21;;;;;;;3.17;2.50;;;3.80;99.90;;;;;;5017065;28;20048;-70
2024/01/05 07:50:47;;;;;;;2.83;2.53;;;4.30;99.90;;;;;;5034771;28;20085;-71
2024/01/05 07:53:13;;;;;;;2.80;2.60;;;4.20;99.90;;;;;;5034999;28;20565;-69
2024/01/05 07:55:39;;;;;;;3.20;2.80;;;4.20;99.90;;;;;;5034991;28;20120;-71
2024/01/05 07:58:04;;;;;;;3.05;2.75;;;4.20;99.90;;;;;;5033714;28;20037;-70
2024/01/05 08:00:31;;;;;;;3.08;2.70;;;4.20;99.90;;;;;;5017136;28;20116;-70
2024/01/05 08:02:58;;;;;;;2.58;2.38;;;4.20;99.90;;;;;;5034595;28;20049;-70
2024/01/05 08:05:24;;;;;;;3.78;3.17;;;4.30;99.90;;;;;;5034700;28;20069;-70
2024/01/05 08:07:49;;;;;;;3.08;2.83;;;4.20;99.90;;;;;;5034634;28;20575;-70
2024/01/05 08:10:15;;;;;;;3.00;2.70;;;4.10;99.90;;;;;;5034629;28;20033;-71
2024/01/05 08:12:40;;;;;;;3.50;3.20;;;4.30;99.90;;;;;;5034365;28;20460;-71
2024/01/05 08:15:07;;;;;;;3.15;2.95;;;4.30;99.90;;;;;;5034635;28;20041;-70
2024/01/05 08:17:32;;;;;;;3.20;3.00;;;4.00;99.90;;;;;;5016626;28;20045;-63
2024/01/05 08:19:58;;;;;;;2.83;2.63;;;5.00;99.90;;;;;;5034517;28;20048;-61
2024/01/05 08:22:25;;;;;;;2.83;2.58;;;4.20;99.90;;;;;;5034426;28;20037;-60
2024/01/05 08:24:51;;;;;;;2.92;2.72;;;4.20;99.90;;;;;;5034359;28;20037;-60
2024/01/05 08:27:35;;;;;;;2.83;2.63;;;4.90;99.90;;;;;;4998409;28;20127;-62
2024/01/05 08:30:00;;;;;;;2.88;2.67;;;4.40;99.90;;;;;;5035036;28;20121;-61
2024/01/05 08:32:26;;;;;;;3.10;2.80;;;;;;;;;;5016208;28;20505;-61
2024/01/05 08:34:52;;;;;;;3.00;2.80;;;4.20;99.90;;;;;;5033854;28;20564;-60
2024/01/05 08:37:18;;;;;;;2.50;2.30;;;4.50;99.90;;;;;;5034106;28;20129;-59
2024/01/05 08:39:43;;;;;;;2.97;2.78;;;4.30;99.90;;;;;;5016084;28;20045;-59
2024/01/05 08:42:09;;;;;;;2.90;2.70;;;4.30;99.90;;;;;;5034035;28;20057;-63
2024/01/05 08:44:35;;;;;;;3.22;2.92;;;4.30;99.90;;;;;;5016021;28;20413;-59
2024/01/05 08:47:01;;;;;;;2.70;2.50;;;4.30;99.90;;;;;;5033997;28;20037;-59
2024/01/05 08:49:27;;;;;;;3.53;3.22;;;4.30;99.90;;;;;;5015886;28;20041;-60
2024/01/05 08:51:53;;;;;;;2.78;2.58;;;4.30;99.90;;;;;;5033877;28;20481;-59
2024/01/05 08:54:19;;;;;;;3.85;3.15;;;4.80;99.90;;;;;;5033831;28;20049;-59
2024/01/05 08:56:44;;;;;;;3.33;2.97;;;4.40;99.90;;;;;;5033583;28;20053;-60
2024/01/05 08:59:11;;;;;;;2.90;2.70;;;4.40;99.90;;;;;;5033734;28;20047;-60
2024/01/05 09:01:37;;;;;;;3.20;2.90;;;4.40;99.90;;;;;;5033536;28;20414;-59
2024/01/05 09:04:03;;;;;;;3.22;3.03;;;4.40;99.90;;;;;;5015447;28;20060;-59
2024/01/05 09:06:31;;;;;;;2.90;2.70;;;4.50;99.90;;;;;;5033283;28;20045;-60
2024/01/05 09:08:57;;;;;;;3.53;3.22;;;4.80;99.90;;;;;;5032803;28;20147;-59
2024/01/05 09:11:22;;;;;;;2.90;2.70;;;4.50;99.90;;;;;;5033322;28;20046;-59
2024/01/05 09:13:48;;;;;;;3.97;3.67;;;4.50;99.90;;;;;;5015353;28;20033;-59
2024/01/05 09:16:14;;;;;;;2.75;2.55;;;4.60;99.90;;;;;;5015476;28;20048;-60
2024/01/05 09:18:39;;;;;;;3.22;2.95;;;4.50;99.90;;;;;;5033368;28;20112;-60
2024/01/05 09:21:08;;;;;;;3.15;2.90;;;4.60;99.90;;;;;;5015400;28;20048;-59
2024/01/05 09:23:34;;;;;;;3.35;3.05;;;4.50;99.90;;;;;;5015241;28;20072;-60
2024/01/05 09:26:00;;;;;;;3.63;3.33;;;5.00;99.90;;;;;;5033269;28;20045;-59
2024/01/05 09:28:25;;;;;;;3.42;3.17;;;4.60;99.90;;;;;;5033263;28;20528;-59
2024/01/05 09:30:51;;;;;;;3.13;2.85;;;4.80;99.90;;;;;;5032895;28;20052;-60
2024/01/05 09:33:17;;;;;;;3.58;3.28;;;4.60;99.90;;;;;;5032958;28;20044;-60
2024/01/05 09:35:42;;;;;;;3.20;2.90;;;4.60;99.90;;;;;;5033250;28;20065;-60
2024/01/05 09:38:08;;;;;;;3.60;3.30;;;4.70;99.90;;;;;;5033043;28;20477;-63
2024/01/05 09:40:34;;;;;;;3.47;3.17;;;4.70;99.90;;;;;;5033165;28;20037;-63
2024/01/05 09:43:02;;;;;;;3.45;3.15;;;4.70;99.90;;;;;;5015100;28;20033;-63
2024/01/05 09:45:29;;;;;;;3.03;2.78;;;4.70;99.90;;;;;;5015157;28;20560;-66
2024/01/05 09:48:00;;;;;;;3.15;2.88;;;4.70;99.90;;;;;;5033252;28;20105;-60
2024/01/05 09:50:25;;;;;;;3.28;2.97;;;4.70;99.90;;;;;;5015166;28;20053;-60
2024/01/05 09:52:51;;;;;;;3.10;2.80;;;5.00;99.90;;;;;;5033056;28;20045;-60
2024/01/05 09:55:17;;;;;;;3.08;2.88;;;4.70;99.90;;;;;;5032909;28;20119;-59
2024/01/05 09:57:43;;;;;;;3.47;3.17;;;4.70;99.90;;;;;;5032881;28;20034;-59
2024/01/05 10:00:13;;;;;;;3.00;2.78;;;4.80;99.90;;;;;;5014940;28;20073;-59
2024/01/05 10:03:04;;;;;;;2.70;2.50;;;4.80;99.90;;;;;;5032606;28;20052;-60
2024/01/05 10:05:30;;;;;;;3.13;2.92;;;4.80;99.90;;;;;;4998447;28;20045;-60
2024/01/05 10:07:56;;;;;;;2.95;2.72;;;4.80;99.90;;;;;;5032813;28;20075;-72
2024/01/05 10:10:48;;;;;;;3.10;2.80;;;4.80;99.90;;;;;;5015045;28;20128;-72
2024/01/05 10:13:15;;;;;;;3.35;3.05;;;4.80;99.90;;;;;;5014980;28;20042;-73
2024/01/05 10:16:00;;;;;;;3.30;2.80;;;4.80;99.90;;;;;;5032594;28;20045;-73
2024/01/05 10:18:30;;;;;;;3.20;2.97;;;5.40;99.90;;;;;;5033010;28;20049;-72
2024/01/05 10:21:07;;;;;;;3.25;2.95;;;5.50;99.90;;;;;;5016045;28;20049;-71
2024/01/05 10:23:42;;;;;;;3.00;2.80;;;4.80;99.90;;;;;;5036390;28;20033;-72
2024/01/05 10:26:15;;;;;;;3.20;3.00;;;5.00;99.90;;;;;;5036378;28;20055;-70
2024/01/05 10:28:41;;;;;;;2.88;2.63;;;5.50;99.90;;;;;;5036565;28;20496;-72
2024/01/05 10:31:14;;;;;;;2.85;2.65;;;4.80;99.90;;;;;;5036760;28;20034;-72
2024/01/05 10:33:54;;;;;;;3.65;3.35;;;4.80;99.90;;;;;;5036720;28;20083;-72
2024/01/05 10:36:24;;;;;;;4.20;3.22;;;4.80;99.90;;;;;;5018566;28;20462;-72
2024/01/05 10:38:50;;;;;;;2.80;2.60;;;4.80;99.90;;;;;;5036615;28;20072;-73
2024/01/05 10:41:18;;;;;;;2.70;2.50;;;4.80;99.90;;;;;;5037018;28;20088;-74
2024/01/05 10:43:43;;;;;;;2.75;2.55;;;4.90;99.90;;;;;;5018796;28;20056;-74
2024/01/05 10:46:18;;;;;;;3.05;2.80;;;5.40;99.90;;;;;;5036653;28;20033;-74
2024/01/05 10:48:44;;;;;;;2.40;2.20;;;4.90;99.90;;;;;;5018670;28;20045;-59
2024/01/05 10:51:19;;;;;;;2.80;2.60;;;4.90;99.90;;;;;;5035938;28;20037;-59
2024/01/05 10:53:47;;;;;;;3.35;3.05;;;5.00;99.90;;;;;;5018126;28;20404;-60
2024/01/05 10:56:13;;;;;;;3.40;3.10;;;5.10;99.90;;;;;;5036088;28;20037;-59
2024/01/05 10:58:39;;;;;;;2.83;2.53;;;5.10;99.90;;;;;;5018122;28;20044;-63
2024/01/05 11:01:09;;;;;;;2.95;2.70;;;5.10;99.90;;;;;;5017876;28;20077;-63
2024/01/05 11:03:42;;;;;;;3.17;2.88;;;5.10;99.90;;;;;;5035933;28;20033;-63
2024/01/05 11:06:10;;;;;;;2.90;2.53;;;5.10;99.90;;;;;;5017906;28;20053;-63
2024/01/05 11:08:56;;;;;;;2.63;2.42;;;5.20;99.90;;;;;;5017773;28;20517;-63
2024/01/05 11:11:59;;;;;;;2.72;2.53;;;5.20;99.90;;;;;;5035772;28;20099;-62
2024/01/05 11:14:51;;;;;;;2.90;2.60;;;5.30;99.90;;;;;;5035465;28;20429;-63
2024/01/05 11:17:45;;;;;;;3.22;2.92;;;5.70;99.90;;;;;;5035666;28;20037;-62
2024/01/05 11:20:47;;;;;;;2.50;2.30;;;5.30;99.90;;;;;;5035656;28;20413;-62
2024/01/05 11:23:14;;;;;;;2.55;2.35;;;5.30;99.90;;;;;;5017801;28;20045;-62
2024/01/05 11:25:40;;;;;;;2.88;2.67;;;5.30;99.90;;;;;;5035306;28;20049;-62
2024/01/05 11:28:06;;;;;;;3.33;3.03;;;5.30;99.90;;;;;;5017430;28;20121;-63
2024/01/05 11:30:44;;;;;;;2.65;2.45;;;5.60;99.90;;;;;;5017499;28;20053;-62
2024/01/05 11:33:49;;;;;;;2.83;2.63;;;5.40;99.90;;;;;;5035118;28;20045;-63
2024/01/05 11:37:00;;;;;;;3.28;2.97;;;5.30;99.90;;;;;;5035363;28;20069;-63
2024/01/05 11:39:37;;;;;;;2.95;2.67;;;5.30;99.90;;;;;;5031117;28;20050;-62
2024/01/05 11:42:03;;;;;;;3.00;2.65;;;5.50;99.90;;;;;;5017234;28;20049;-62
2024/01/05 11:44:36;;;;;;;3.42;2.80;;;5.30;99.90;;;;;;5016983;28;20409;-62
2024/01/05 11:47:02;;;;;;;2.45;2.25;;;5.40;99.90;;;;;;5017399;28;20056;-62
2024/01/05 11:49:39;;;;;;;2.83;2.63;;;5.40;99.90;;;;;;5035298;28;20037;-62
2024/01/05 11:52:05;;;;;;;2.42;2.22;;;5.40;99.90;;;;;;5035026;28;20057;-63
2024/01/05 11:54:32;;;;;;;2.83;2.55;;;5.40;99.90;;;;;;5017266;28;20049;-62
2024/01/05 11:57:01;;;;;;;2.55;2.35;;;6.10;99.90;;;;;;5034979;28;20049;-60
2024/01/05 11:59:27;;;;;;;2.42;2.22;;;5.40;99.90;;;;;;5034954;28;20109;-60
2024/01/05 12:01:53;;;;;;;3.03;2.70;;;5.90;99.90;;;;;;5000670;28;20171;-61
2024/01/05 12:04:20;;;;;;;2.78;2.58;;;5.70;99.90;;;;;;5034630;28;20077;-59
2024/01/05 12:06:54;;;;;;;2.42;2.22;;;5.40;99.90;;;;;;5034731;28;20108;-72
2024/01/05 12:09:21;;;;;;;2.78;2.58;;;5.40;99.90;;;;;;5034705;28;20049;-74
2024/01/05 12:11:47;;;;;;;2.90;2.60;;;5.70;99.90;;;;;;5000161;28;20107;-73
2024/01/05 12:14:28;;;;;;;2.35;2.15;;;5.90;99.90;;;;;;5034525;28;20050;-70
2024/01/05 12:17:12;;;;;;;2.78;2.58;;;5.50;99.90;;;;;;5034336;28;20033;-72
2024/01/05 12:19:39;;;;;;;2.70;2.50;;;5.50;99.90;;;;;;5034565;28;20033;-72
2024/01/05 12:22:08;;;;;;;2.72;2.45;;;5.50;99.90;;;;;;5034195;28;20049;-71
2024/01/05 12:24:34;;;;;;;2.80;2.60;;;5.50;99.90;;;;;;5016217;28;20113;-71
2024/01/05 12:27:00;;;;;;;3.15;2.85;;;5.60;99.90;;;;;;5034422;28;20041;-71
2024/01/05 12:29:26;;;;;;;2.45;2.25;;;5.50;99.90;;;;;;5034698;28;20440;-73
2024/01/05 12:31:52;;;;;;;2.70;2.50;;;5.90;99.90;;;;;;5035516;28;20072;-72
2024/01/05 12:34:18;;;;;;;2.38;2.17;;;5.60;99.90;;;;;;5035139;28;20060;-72
2024/01/05 12:36:44;;;;;;;2.83;2.35;;;5.60;99.90;;;;;;5034869;28;20045;-72
2024/01/05 12:39:10;;;;;;;2.50;2.30;;;5.60;99.90;;;;;;5034159;28;20094;-71
2024/01/05 12:41:39;;;;;;;3.10;2.80;;;5.60;99.90;;;;;;5016554;28;20061;-73
2024/01/05 12:44:07;;;;;;;3.30;2.50;;;5.60;99.90;;;;;;5032729;28;20041;-72
2024/01/05 12:46:41;;;;;;;2.72;2.53;;;5.60;99.90;;;;;;5017015;28;20052;-72
2024/01/05 12:49:24;;;;;;;2.80;2.60;;;6.20;99.90;;;;;;5035916;28;20634;-72
2024/01/05 12:51:50;;;;;;;2.75;2.55;;;5.50;99.90;;;;;;5016320;28;20052;-73
2024/01/05 12:54:17;;;;;;;2.67;2.47;;;5.60;99.90;;;;;;5033577;28;20041;-71
2024/01/05 12:56:48;;;;;;;2.55;2.35;;;5.60;99.90;;;;;;5034312;28;20519;-67
2024/01/05 12:59:25;;;;;;;2.85;2.65;;;5.60;99.90;;;;;;5033350;28;20053;-68